Time;durP1;ratioP1;P1;durP2;ratioP2;P2;SDS_P1;SDS_P2;PMS_P1;PMS_P2;Temp;Humidity;BMP_temperature;BMP_pressure;BME280_temperature;BME280_humidity;BME280_pressure;Samples;Min_cycle;Max_cycle;Signal;HPM_P1;HPM_P2
2023/11/24 00:02:14;;;;;;;947.60;880.80;;;8.70;99.90;;;;;;6156050;23;20397;-77
2023/11/24 00:04:43;;;;;;;1013.47;939.53;;;9.10;99.90;;;;;;6155801;23;20448;-77
2023/11/24 00:07:11;;;;;;;879.53;818.73;;;8.80;99.90;;;;;;6156286;23;20412;-77
2023/11/24 00:09:38;;;;;;;963.00;894.10;;;8.80;99.90;;;;;;6156013;23;20418;-77
2023/11/24 00:12:05;;;;;;;921.33;855.77;;;8.80;99.90;;;;;;6155922;23;20440;-77
2023/11/24 00:14:34;;;;;;;919.00;855.33;;;8.60;99.90;;;;;;6156213;23;20450;-77
2023/11/24 00:17:01;;;;;;;918.57;854.03;;;8.70;99.90;;;;;;6155847;23;20412;-77
2023/11/24 00:19:28;;;;;;;918.50;854.67;;;8.80;99.90;;;;;;6155955;23;20774;-76
2023/11/24 00:21:54;;;;;;;847.83;791.47;;;8.50;99.90;;;;;;6155653;23;20893;-76
2023/11/24 00:24:21;;;;;;;862.57;804.10;;;8.70;99.90;;;;;;6155608;23;20440;-76
2023/11/24 00:26:48;;;;;;;859.67;800.77;;;8.40;99.90;;;;;;6156083;23;20464;-76
2023/11/24 00:29:15;;;;;;;709.00;665.60;;;8.60;99.90;;;;;;6155939;23;20787;-76
2023/11/24 00:31:45;;;;;;;780.33;729.57;;;8.40;99.90;;;;;;6156082;23;20417;-76
2023/11/24 00:34:12;;;;;;;799.03;746.70;;;8.60;99.90;;;;;;6155765;23;20413;-76
2023/11/24 00:36:39;;;;;;;778.97;729.17;;;8.60;99.90;;;;;;6156021;23;20492;-76
2023/11/24 00:39:07;;;;;;;814.30;760.87;;;8.40;99.90;;;;;;6155414;23;20995;-76
2023/11/24 00:41:34;;;;;;;843.87;789.27;;;8.40;99.90;;;;;;6156014;23;20497;-75
2023/11/24 00:44:02;;;;;;;874.00;815.33;;;8.50;99.90;;;;;;6155537;23;20519;-76
2023/11/24 00:46:29;;;;;;;869.50;811.00;;;8.40;99.90;;;;;;6155442;23;20410;-75
2023/11/24 00:48:57;;;;;;;809.03;756.73;;;8.40;99.90;;;;;;6155443;23;20412;-75
2023/11/24 00:51:25;;;;;;;799.63;751.37;;;8.40;99.90;;;;;;6155862;23;20478;-75
2023/11/24 00:53:52;;;;;;;783.53;739.43;;;8.40;99.90;;;;;;6155811;23;20415;-75
2023/11/24 00:56:19;;;;;;;858.60;807.20;;;8.40;99.90;;;;;;6155314;23;20418;-75
2023/11/24 00:58:46;;;;;;;783.37;744.20;;;8.40;99.90;;;;;;6155782;23;20414;-75
2023/11/24 01:01:13;;;;;;;786.90;746.77;;;8.30;99.90;;;;;;6155282;23;20452;-75
2023/11/24 01:03:40;;;;;;;710.93;679.20;;;8.30;99.90;;;;;;6155532;23;20525;-75
2023/11/24 01:06:09;;;;;;;617.77;592.77;;;8.30;99.90;;;;;;6155629;23;20410;-75
2023/11/24 01:08:36;;;;;;;529.73;508.93;;;8.20;99.90;;;;;;6155628;23;20412;-74
2023/11/24 01:11:03;;;;;;;575.83;552.47;;;8.40;99.90;;;;;;6155120;23;20462;-74
2023/11/24 01:13:32;;;;;;;607.53;582.13;;;8.40;99.90;;;;;;6155762;23;20437;-74
2023/11/24 01:15:59;;;;;;;535.90;514.50;;;8.40;99.90;;;;;;6155657;23;20559;-74
2023/11/24 01:18:27;;;;;;;462.50;445.00;;;8.50;99.90;;;;;;6155079;23;20421;-74
2023/11/24 01:20:54;;;;;;;361.60;347.73;;;8.40;99.90;;;;;;6155405;23;20420;-74
2023/11/24 01:23:23;;;;;;;181.57;173.23;;;8.50;99.90;;;;;;6155191;23;20983;-74
2023/11/24 01:25:50;;;;;;;150.53;142.03;;;8.50;99.90;;;;;;6155574;23;20414;-74
2023/11/24 01:28:16;;;;;;;79.00;74.47;;;8.60;99.90;;;;;;6155454;23;20444;-74
2023/11/24 01:30:43;;;;;;;148.43;141.60;;;8.70;99.90;;;;;;6155262;23;20781;-74
2023/11/24 01:33:10;;;;;;;212.73;203.67;;;8.80;99.90;;;;;;6155539;23;20417;-74
2023/11/24 01:35:37;;;;;;;180.77;172.67;;;8.80;99.90;;;;;;6155046;23;20410;-74
2023/11/24 01:38:04;;;;;;;207.10;199.27;;;8.70;99.90;;;;;;6155353;23;20490;-74
2023/11/24 01:40:34;;;;;;;95.87;89.00;;;8.80;99.90;;;;;;6154883;23;20410;-74
2023/11/24 01:43:01;;;;;;;164.57;157.47;;;8.90;99.90;;;;;;6155455;23;20410;-74
2023/11/24 01:45:28;;;;;;;626.90;604.97;;;8.90;99.90;;;;;;6154433;23;20439;-79
2023/11/24 01:47:55;;;;;;;481.70;465.03;;;8.20;99.90;;;;;;6155324;23;20449;-79
2023/11/24 01:50:22;;;;;;;586.57;564.07;;;7.90;99.90;;;;;;6155186;23;20463;-79
2023/11/24 01:52:50;;;;;;;628.70;602.40;;;7.80;99.90;;;;;;6155424;23;20409;-80
2023/11/24 01:55:17;;;;;;;699.73;667.33;;;7.60;99.90;;;;;;6154729;23;20454;-79
2023/11/24 01:57:48;;;;;;;681.17;651.90;;;7.50;99.90;;;;;;6154799;23;20417;-79
2023/11/24 02:00:18;;;;;;;750.70;711.13;;;7.40;99.90;;;;;;6155158;23;20400;-78
2023/11/24 02:02:45;;;;;;;734.57;696.27;;;7.40;99.90;;;;;;6155246;23;20414;-78
2023/11/24 02:05:11;;;;;;;725.47;688.37;;;7.40;99.90;;;;;;6155146;23;20435;-77
2023/11/24 02:07:39;;;;;;;726.20;689.53;;;7.30;99.90;;;;;;6164723;23;20738;-77
2023/11/24 02:10:08;;;;;;;750.20;707.47;;;7.30;99.90;;;;;;6154644;23;20913;-77
2023/11/24 02:12:35;;;;;;;657.67;626.87;;;7.40;99.90;;;;;;6155460;23;20450;-77
2023/11/24 02:15:03;;;;;;;452.60;436.97;;;7.20;99.90;;;;;;6155164;23;20411;-77
2023/11/24 02:17:30;;;;;;;381.57;369.50;;;7.00;99.90;;;;;;6155186;23;20407;-77
2023/11/24 02:19:58;;;;;;;558.63;537.93;;;6.80;99.90;;;;;;6154699;23;20933;-77
2023/11/24 02:22:26;;;;;;;604.13;578.97;;;6.70;99.90;;;;;;6154796;23;20436;-77
2023/11/24 02:24:54;;;;;;;581.77;557.70;;;6.70;99.90;;;;;;6154453;23;20510;-77
2023/11/24 02:27:21;;;;;;;616.73;589.63;;;6.70;99.90;;;;;;6155127;23;20411;-76
2023/11/24 02:29:48;;;;;;;657.37;624.57;;;6.70;99.90;;;;;;6155058;23;20819;-76
2023/11/24 02:32:15;;;;;;;660.27;626.33;;;6.70;99.90;;;;;;6155059;23;20498;-76
2023/11/24 02:34:42;;;;;;;640.47;606.87;;;6.70;99.90;;;;;;6154646;23;20913;-76
2023/11/24 02:37:09;;;;;;;693.77;653.50;;;6.80;99.90;;;;;;6154672;23;20446;-76
2023/11/24 02:39:36;;;;;;;698.57;658.33;;;6.80;99.90;;;;;;6154834;23;20448;-76
2023/11/24 02:42:05;;;;;;;705.00;662.23;;;6.90;99.90;;;;;;6155098;23;20415;-76
2023/11/24 02:44:32;;;;;;;630.83;597.53;;;6.90;99.90;;;;;;6154494;23;20485;-76
2023/11/24 02:46:59;;;;;;;610.07;576.83;;;6.90;99.90;;;;;;6154956;23;20785;-76
2023/11/24 02:49:26;;;;;;;637.90;603.47;;;6.90;99.90;;;;;;6154428;23;20410;-76
2023/11/24 02:51:54;;;;;;;649.20;614.67;;;6.90;99.90;;;;;;6154857;23;20415;-76
2023/11/24 02:54:22;;;;;;;648.67;613.80;;;6.80;99.90;;;;;;6154473;23;20407;-76
2023/11/24 02:56:49;;;;;;;660.40;625.27;;;6.80;99.90;;;;;;6156142;23;20401;-76
2023/11/24 02:59:17;;;;;;;667.70;631.17;;;6.90;99.90;;;;;;6156747;23;20737;-76
2023/11/24 03:01:44;;;;;;;657.67;623.40;;;6.80;99.90;;;;;;6156944;23;20410;-76
2023/11/24 03:04:12;;;;;;;652.10;619.00;;;6.80;99.90;;;;;;6156865;23;20443;-75
2023/11/24 03:06:42;;;;;;;614.97;586.37;;;6.80;99.90;;;;;;6156631;23;20493;-75
2023/11/24 03:09:10;;;;;;;566.30;541.77;;;6.70;99.90;;;;;;6156591;23;20411;-75
2023/11/24 03:11:38;;;;;;;562.13;538.43;;;6.60;99.90;;;;;;6156827;23;20409;-75
2023/11/24 03:14:07;;;;;;;558.87;536.97;;;6.60;99.90;;;;;;6156442;23;20408;-75
2023/11/24 03:16:36;;;;;;;551.47;530.27;;;6.50;99.90;;;;;;6156654;23;20810;-75
2023/11/24 03:19:04;;;;;;;502.20;483.30;;;6.40;99.90;;;;;;6156537;23;20409;-74
2023/11/24 03:21:31;;;;;;;533.00;513.10;;;6.40;99.90;;;;;;6156583;23;20454;-75
2023/11/24 03:23:59;;;;;;;523.23;503.63;;;6.40;99.90;;;;;;6156689;23;20434;-75
2023/11/24 03:26:26;;;;;;;570.97;549.10;;;6.50;99.90;;;;;;6156139;23;20411;-75
2023/11/24 03:28:53;;;;;;;564.43;542.23;;;6.50;99.90;;;;;;6156617;23;20489;-74
2023/11/24 03:31:20;;;;;;;530.57;509.47;;;6.60;99.90;;;;;;6156427;23;20466;-74
2023/11/24 03:33:48;;;;;;;379.80;363.13;;;6.60;99.90;;;;;;6155834;23;20453;-74
2023/11/24 03:36:16;;;;;;;421.30;405.17;;;6.70;99.90;;;;;;6155950;23;20974;-74
2023/11/24 03:38:43;;;;;;;321.13;308.50;;;6.70;99.90;;;;;;6155794;23;20413;-73
2023/11/24 03:41:11;;;;;;;404.00;388.77;;;6.70;99.90;;;;;;6156390;23;20437;-74
2023/11/24 03:43:38;;;;;;;361.03;346.73;;;6.70;99.90;;;;;;6156552;23;20491;-73
2023/11/24 03:46:05;;;;;;;424.40;407.83;;;6.80;99.90;;;;;;6156389;23;20448;-74
2023/11/24 03:48:32;;;;;;;390.17;375.83;;;6.80;99.90;;;;;;6156004;23;20461;-73
2023/11/24 03:51:00;;;;;;;300.20;288.47;;;6.90;99.90;;;;;;6155908;23;20461;-74
2023/11/24 03:53:27;;;;;;;277.40;266.23;;;6.90;99.90;;;;;;6156427;23;20410;-73
2023/11/24 03:55:54;;;;;;;270.07;260.07;;;6.90;99.90;;;;;;6155969;23;20502;-74
2023/11/24 03:58:21;;;;;;;93.57;88.97;;;7.00;99.90;;;;;;6156294;23;20495;-73
2023/11/24 04:00:48;;;;;;;217.53;209.83;;;7.00;99.90;;;;;;6155789;23;20815;-74
2023/11/24 04:03:15;;;;;;;175.20;168.60;;;7.00;99.90;;;;;;6155870;23;20469;-73
2023/11/24 04:05:43;;;;;;;228.20;219.20;;;7.00;99.90;;;;;;6156111;23;20531;-74
2023/11/24 04:08:11;;;;;;;164.03;157.00;;;7.10;99.90;;;;;;6155720;23;20491;-74
2023/11/24 04:10:38;;;;;;;96.47;89.67;;;7.00;99.90;;;;;;6155854;23;20412;-74
2023/11/24 04:13:05;;;;;;;15.63;14.23;;;7.00;99.90;;;;;;6156271;23;20500;-73
2023/11/24 04:15:32;;;;;;;11.03;10.10;;;7.00;99.90;;;;;;6156159;23;20412;-74
2023/11/24 04:17:59;;;;;;;31.83;29.93;;;7.10;99.90;;;;;;6156435;23;20729;-74
2023/11/24 04:20:26;;;;;;;32.33;30.60;;;7.00;99.90;;;;;;6156061;23;20415;-74
2023/11/24 04:22:53;;;;;;;72.30;69.50;;;7.10;99.90;;;;;;6156191;23;20783;-74
2023/11/24 04:25:21;;;;;;;47.10;44.27;;;7.10;99.90;;;;;;6155965;23;20551;-73
2023/11/24 04:27:48;;;;;;;63.90;60.43;;;7.20;99.90;;;;;;6155726;23;20466;-73
2023/11/24 04:30:15;;;;;;;72.70;68.50;;;7.20;99.90;;;;;;6155373;23;20490;-74
2023/11/24 04:32:42;;;;;;;77.53;72.93;;;7.30;99.90;;;;;;6156100;23;20501;-73
2023/11/24 04:35:09;;;;;;;86.67;82.97;;;7.30;99.90;;;;;;6165384;23;20412;-73
2023/11/24 04:37:36;;;;;;;65.37;62.40;;;7.30;99.90;;;;;;6155676;23;20490;-73
2023/11/24 04:40:04;;;;;;;72.13;68.30;;;7.30;99.90;;;;;;6154668;23;20935;-73
2023/11/24 04:42:32;;;;;;;41.93;39.83;;;7.20;99.90;;;;;;6155683;23;20415;-73
2023/11/24 04:44:59;;;;;;;60.10;56.50;;;7.30;99.90;;;;;;6154457;23;20436;-73
2023/11/24 04:47:26;;;;;;;22.33;20.60;;;7.30;99.90;;;;;;6155695;23;20434;-73
2023/11/24 04:49:53;;;;;;;10.63;9.60;;;7.40;99.90;;;;;;6155786;23;20773;-73
2023/11/24 04:52:20;;;;;;;17.00;15.70;;;7.40;99.90;;;;;;6155899;23;20422;-73
2023/11/24 04:54:46;;;;;;;14.33;6.20;;;7.40;99.90;;;;;;6155192;23;20416;-73
2023/11/24 04:57:13;;;;;;;13.83;12.50;;;7.30;99.90;;;;;;6155438;23;20491;-73
2023/11/24 04:59:42;;;;;;;17.60;16.40;;;7.20;99.90;;;;;;6155519;23;20464;-73
2023/11/24 05:02:09;;;;;;;13.13;11.37;;;7.10;99.90;;;;;;6155727;23;20495;-74
2023/11/24 05:04:37;;;;;;;18.33;17.13;;;7.10;99.90;;;;;;6155576;23;20443;-73
2023/11/24 05:07:04;;;;;;;21.43;19.90;;;7.00;99.90;;;;;;6155743;23;20743;-73
2023/11/24 05:09:31;;;;;;;26.73;25.00;;;7.00;99.90;;;;;;6155041;23;20489;-73
2023/11/24 05:11:59;;;;;;;32.93;31.03;;;7.00;99.90;;;;;;6155202;23;20489;-73
2023/11/24 05:14:25;;;;;;;24.23;22.43;;;7.00;99.90;;;;;;6155955;23;20494;-73
2023/11/24 05:16:54;;;;;;;32.50;31.00;;;7.10;99.90;;;;;;6155583;23;20461;-73
2023/11/24 05:19:21;;;;;;;37.83;35.93;;;7.10;99.90;;;;;;6155343;23;20501;-73
2023/11/24 05:21:47;;;;;;;46.80;44.43;;;7.20;99.90;;;;;;6155364;23;20993;-73
2023/11/24 05:24:14;;;;;;;34.93;32.70;;;7.20;99.90;;;;;;6155690;23;20510;-73
2023/11/24 05:26:41;;;;;;;31.77;29.57;;;7.20;99.90;;;;;;6155394;23;20417;-73
2023/11/24 05:29:09;;;;;;;34.37;32.50;;;7.30;99.90;;;;;;6155397;23;20415;-73
2023/11/24 05:31:36;;;;;;;37.10;35.10;;;7.10;99.90;;;;;;6155040;23;20455;-73
2023/11/24 05:34:05;;;;;;;41.43;38.73;;;7.30;99.90;;;;;;6155516;23;20410;-74
2023/11/24 05:36:33;;;;;;;31.30;29.53;;;7.30;99.90;;;;;;6155450;23;20407;-74
2023/11/24 05:39:00;;;;;;;34.40;31.93;;;7.30;99.90;;;;;;6155376;23;20515;-73
2023/11/24 05:41:28;;;;;;;26.73;25.20;;;7.40;99.90;;;;;;6154957;23;20417;-73
2023/11/24 05:43:56;;;;;;;32.63;30.63;;;7.40;99.90;;;;;;6155181;23;20411;-73
2023/11/24 05:46:22;;;;;;;41.50;39.50;;;7.40;99.90;;;;;;6154798;23;20826;-73
2023/11/24 05:48:49;;;;;;;36.47;34.00;;;7.40;99.90;;;;;;6155194;23;20415;-73
2023/11/24 05:51:18;;;;;;;36.20;34.17;;;7.40;99.90;;;;;;6154858;23;20467;-73
2023/11/24 05:53:45;;;;;;;36.10;33.70;;;7.40;99.90;;;;;;6155523;23;20501;-74
2023/11/24 05:56:12;;;;;;;33.07;30.80;;;7.40;99.90;;;;;;6154960;23;20497;-73
2023/11/24 05:58:40;;;;;;;41.90;39.43;;;7.50;99.90;;;;;;6154827;23;20454;-73
2023/11/24 06:01:06;;;;;;;37.47;35.63;;;7.40;99.90;;;;;;6154946;23;20410;-74
2023/11/24 06:03:33;;;;;;;32.07;29.70;;;7.40;99.90;;;;;;6155197;23;20412;-73
2023/11/24 06:06:01;;;;;;;26.60;24.67;;;7.40;99.90;;;;;;6154828;23;20526;-73
2023/11/24 06:08:30;;;;;;;27.63;25.63;;;7.40;99.90;;;;;;6155371;23;20419;-73
2023/11/24 06:10:57;;;;;;;32.90;30.90;;;7.40;99.90;;;;;;6155235;23;20412;-73
2023/11/24 06:13:25;;;;;;;31.37;29.33;;;7.40;99.90;;;;;;6154797;23;20952;-73
2023/11/24 06:15:54;;;;;;;34.00;31.10;;;7.40;99.90;;;;;;6155013;23;20975;-73
2023/11/24 06:18:21;;;;;;;30.90;28.63;;;7.40;99.90;;;;;;6154822;23;20422;-73
2023/11/24 06:20:48;;;;;;;32.80;30.47;;;7.40;99.90;;;;;;6154877;23;20497;-74
2023/11/24 06:23:15;;;;;;;34.40;31.20;;;7.40;99.90;;;;;;6154558;23;20910;-74
2023/11/24 06:25:43;;;;;;;39.23;35.43;;;7.30;99.90;;;;;;6154875;23;20438;-74
2023/11/24 06:28:10;;;;;;;38.83;36.20;;;7.20;99.90;;;;;;6154779;23;20442;-73
2023/11/24 06:30:38;;;;;;;45.93;43.17;;;7.20;99.90;;;;;;6154128;23;20411;-73
2023/11/24 06:33:05;;;;;;;49.83;46.47;;;7.10;99.90;;;;;;6153217;23;20486;-73
2023/11/24 06:35:32;;;;;;;57.83;54.10;;;7.10;99.90;;;;;;6154436;23;20411;-73
2023/11/24 06:37:59;;;;;;;56.73;53.80;;;7.00;99.90;;;;;;6154755;23;20783;-73
2023/11/24 06:40:27;;;;;;;63.80;60.10;;;7.00;99.90;;;;;;6154300;23;20410;-73
2023/11/24 06:42:55;;;;;;;80.10;76.30;;;7.10;99.90;;;;;;6154261;23;20497;-73
2023/11/24 06:45:22;;;;;;;108.13;102.17;;;7.10;99.90;;;;;;6154605;23;20434;-73
2023/11/24 06:47:49;;;;;;;98.30;93.97;;;7.10;99.90;;;;;;6153723;23;20450;-73
2023/11/24 06:50:16;;;;;;;95.03;91.30;;;7.10;99.90;;;;;;6153843;23;20502;-73
2023/11/24 06:52:43;;;;;;;83.37;79.57;;;7.20;99.90;;;;;;6154109;23;20414;-73
2023/11/24 06:55:11;;;;;;;68.23;64.83;;;7.20;99.90;;;;;;6153909;23;20414;-73
2023/11/24 06:57:38;;;;;;;81.77;77.93;;;7.10;99.90;;;;;;6154797;23;20435;-73
2023/11/24 07:00:08;;;;;;;81.93;77.97;;;7.00;99.90;;;;;;6154480;23;20417;-72
2023/11/24 07:02:36;;;;;;;109.63;103.60;;;6.90;99.90;;;;;;6154981;23;20792;-73
2023/11/24 07:05:03;;;;;;;135.00;128.60;;;6.90;99.90;;;;;;6154776;23;20411;-72
2023/11/24 07:07:30;;;;;;;159.53;153.10;;;6.80;99.90;;;;;;6154943;23;20419;-73
2023/11/24 07:09:57;;;;;;;174.33;167.63;;;6.80;99.90;;;;;;6154384;23;20452;-74
2023/11/24 07:12:25;;;;;;;158.30;151.30;;;6.90;99.90;;;;;;6154901;23;20410;-73
2023/11/24 07:14:52;;;;;;;168.10;160.73;;;7.00;99.90;;;;;;6154422;23;20417;-73
2023/11/24 07:17:21;;;;;;;164.87;157.97;;;7.00;99.90;;;;;;6154457;23;21007;-73
2023/11/24 07:19:48;;;;;;;157.90;151.80;;;7.10;99.90;;;;;;6164231;23;20909;-73
2023/11/24 07:22:14;;;;;;;169.60;162.67;;;7.10;99.90;;;;;;6154994;23;20412;-73
2023/11/24 07:24:42;;;;;;;189.37;182.03;;;7.20;99.90;;;;;;6154785;23;20497;-73
2023/11/24 07:27:09;;;;;;;223.37;214.27;;;7.20;99.90;;;;;;6154676;23;21100;-73
2023/11/24 07:29:36;;;;;;;214.73;206.50;;;7.20;99.90;;;;;;6154234;23;20415;-73
2023/11/24 07:32:04;;;;;;;299.03;287.67;;;7.20;99.90;;;;;;6154903;23;20490;-75
2023/11/24 07:34:34;;;;;;;472.40;456.10;;;7.00;99.90;;;;;;6154878;23;20488;-76
2023/11/24 07:37:01;;;;;;;382.23;370.03;;;6.70;99.90;;;;;;6155028;23;20423;-76
2023/11/24 07:39:30;;;;;;;605.27;582.50;;;6.50;99.90;;;;;;6154690;23;20410;-76
2023/11/24 07:41:58;;;;;;;563.20;543.47;;;6.50;99.90;;;;;;6154805;23;20495;-76
2023/11/24 07:44:27;;;;;;;479.90;463.13;;;6.40;99.90;;;;;;6165854;23;20421;-76
2023/11/24 07:46:53;;;;;;;592.20;570.90;;;6.30;99.90;;;;;;6156340;23;20443;-76
2023/11/24 07:49:21;;;;;;;533.13;514.67;;;6.30;99.90;;;;;;6156393;23;20734;-77
2023/11/24 07:51:50;;;;;;;518.40;499.30;;;6.10;99.90;;;;;;6156626;23;20710;-78
2023/11/24 07:54:16;;;;;;;697.03;665.27;;;6.00;99.90;;;;;;6156338;23;20466;-77
2023/11/24 07:56:43;;;;;;;733.87;693.50;;;5.80;99.90;;;;;;6156380;23;20390;-77
2023/11/24 07:59:11;;;;;;;747.43;703.47;;;5.70;99.90;;;;;;6156169;23;20520;-77
2023/11/24 08:01:38;;;;;;;748.10;702.17;;;5.70;99.90;;;;;;6156125;23;20398;-77
2023/11/24 08:04:05;;;;;;;744.20;698.73;;;5.70;99.90;;;;;;6156362;23;20415;-77
2023/11/24 08:06:32;;;;;;;712.97;672.07;;;5.70;99.90;;;;;;6156270;23;20476;-77
2023/11/24 08:09:03;;;;;;;702.20;661.07;;;5.60;99.90;;;;;;6156252;23;20470;-77
2023/11/24 08:11:31;;;;;;;658.33;622.93;;;5.60;99.90;;;;;;6156301;23;20394;-77
2023/11/24 08:13:58;;;;;;;710.97;668.27;;;5.60;99.90;;;;;;6155906;23;20409;-76
2023/11/24 08:16:25;;;;;;;663.17;625.30;;;5.70;99.90;;;;;;6155829;23;20410;-76
2023/11/24 08:18:52;;;;;;;639.60;604.30;;;5.70;99.90;;;;;;6156267;23;20789;-77
2023/11/24 08:21:19;;;;;;;679.40;640.90;;;5.70;99.90;;;;;;6154668;23;20410;-76
2023/11/24 08:23:47;;;;;;;703.07;661.60;;;5.70;99.90;;;;;;6155181;23;20472;-76
2023/11/24 08:26:17;;;;;;;698.07;656.73;;;5.70;99.90;;;;;;6155450;23;20532;-76
2023/11/24 08:28:44;;;;;;;681.43;641.40;;;5.60;99.90;;;;;;6155836;23;20405;-76
2023/11/24 08:31:16;;;;;;;744.47;694.17;;;5.70;99.90;;;;;;6155420;23;20456;-76
2023/11/24 08:33:43;;;;;;;690.67;643.47;;;5.90;99.90;;;;;;6165245;23;20719;-76
2023/11/24 08:36:10;;;;;;;708.27;660.20;;;6.10;99.90;;;;;;6155479;23;20441;-75
2023/11/24 08:38:37;;;;;;;689.47;646.00;;;6.30;99.90;;;;;;6155742;23;20942;-76
2023/11/24 08:41:10;;;;;;;665.17;626.00;;;6.30;99.90;;;;;;6155279;23;20606;-76
2023/11/24 08:43:38;;;;;;;639.67;603.87;;;6.30;99.90;;;;;;6155682;23;20853;-76
2023/11/24 08:46:07;;;;;;;679.20;640.53;;;6.30;99.90;;;;;;6155471;23;20442;-76
2023/11/24 08:48:34;;;;;;;649.20;613.00;;;6.30;99.90;;;;;;6154171;23;20423;-75
2023/11/24 08:51:01;;;;;;;608.50;580.70;;;6.30;99.90;;;;;;6154081;23;20413;-76
2023/11/24 08:53:28;;;;;;;604.40;578.87;;;6.30;99.90;;;;;;6155515;23;20254;-75
2023/11/24 08:55:57;;;;;;;603.60;578.20;;;6.30;99.90;;;;;;6164981;23;20418;-76
2023/11/24 08:58:25;;;;;;;653.43;624.57;;;6.30;99.90;;;;;;6155682;23;20497;-76
2023/11/24 09:00:54;;;;;;;607.03;582.43;;;6.40;99.90;;;;;;6155318;23;20497;-76
2023/11/24 09:03:24;;;;;;;589.90;565.90;;;6.50;99.90;;;;;;6155674;23;20419;-76
2023/11/24 09:05:53;;;;;;;547.83;526.73;;;6.40;99.90;;;;;;6155608;23;20825;-76
2023/11/24 09:08:20;;;;;;;474.53;456.93;;;6.40;99.90;;;;;;6155634;23;20415;-76
2023/11/24 09:10:47;;;;;;;549.00;529.20;;;6.40;99.90;;;;;;6155116;23;20920;-75
2023/11/24 09:13:14;;;;;;;535.90;517.20;;;6.50;99.90;;;;;;6155277;23;20413;-75
2023/11/24 09:15:42;;;;;;;401.83;388.33;;;6.60;99.90;;;;;;6155300;23;20989;-75
2023/11/24 09:18:11;;;;;;;188.03;181.17;;;6.60;99.90;;;;;;6155624;23;20542;-75
2023/11/24 09:20:38;;;;;;;219.97;212.73;;;6.60;99.90;;;;;;6155149;23;20924;-75
2023/11/24 09:23:05;;;;;;;180.63;174.40;;;6.60;99.90;;;;;;6155282;23;20413;-74
2023/11/24 09:25:33;;;;;;;222.50;215.33;;;6.60;99.90;;;;;;6155380;23;20471;-75
2023/11/24 09:28:00;;;;;;;132.93;128.10;;;6.60;99.90;;;;;;6155499;23;20438;-75
2023/11/24 09:30:27;;;;;;;221.57;214.47;;;6.60;99.90;;;;;;6154910;23;20920;-74
2023/11/24 09:32:55;;;;;;;123.63;118.93;;;6.70;99.90;;;;;;6155101;23;20447;-74
2023/11/24 09:35:24;;;;;;;92.23;88.43;;;6.80;99.90;;;;;;6165106;23;20899;-74
2023/11/24 09:37:52;;;;;;;83.90;80.40;;;6.90;99.90;;;;;;6155026;23;20408;-74
2023/11/24 09:40:22;;;;;;;86.57;82.63;;;7.00;99.90;;;;;;6164628;23;20416;-74
2023/11/24 09:42:50;;;;;;;71.53;68.33;;;7.00;99.90;;;;;;6155132;23;20413;-74
2023/11/24 09:45:19;;;;;;;31.97;30.30;;;7.00;99.90;;;;;;6155321;23;20447;-74
2023/11/24 09:47:49;;;;;;;71.47;68.07;;;7.00;99.90;;;;;;6155210;23;20443;-73
2023/11/24 09:50:23;;;;;;;67.50;64.10;;;7.00;99.90;;;;;;6154878;23;20963;-73
2023/11/24 09:52:54;;;;;;;16.10;15.20;;;7.10;99.90;;;;;;6155436;23;20428;-74
2023/11/24 09:55:21;;;;;;;7.37;4.87;;;7.10;99.90;;;;;;6154966;23;20759;-74
2023/11/24 09:57:49;;;;;;;10.57;7.13;;;7.10;99.90;;;;;;6155268;23;20471;-73
2023/11/24 10:00:18;;;;;;;9.13;4.77;;;7.10;99.90;;;;;;6154857;23;20418;-73
2023/11/24 10:02:47;;;;;;;10.10;8.47;;;7.00;99.90;;;;;;6155316;23;20719;-73
2023/11/24 10:05:18;;;;;;;26.83;24.70;;;7.00;99.90;;;;;;6154886;23;20410;-73
2023/11/24 10:07:47;;;;;;;24.60;22.30;;;7.00;99.90;;;;;;6155160;23;20559;-74
2023/11/24 10:10:23;;;;;;;29.57;27.53;;;7.00;99.90;;;;;;6154749;23;20594;-74
2023/11/24 10:12:52;;;;;;;10.90;10.00;;;7.00;99.90;;;;;;6155363;23;20483;-73
2023/11/24 10:15:20;;;;;;;13.27;11.90;;;7.00;99.90;;;;;;6155107;23;20767;-74
2023/11/24 10:17:48;;;;;;;15.97;15.17;;;6.90;99.90;;;;;;6155130;23;20466;-74
2023/11/24 10:20:18;;;;;;;9.83;6.00;;;6.90;99.90;;;;;;6154520;23;20415;-73
2023/11/24 10:22:46;;;;;;;12.00;7.50;;;6.80;99.90;;;;;;6164441;23;20424;-73
2023/11/24 10:25:14;;;;;;;19.57;14.90;;;6.70;99.90;;;;;;6164728;23;20409;-74
2023/11/24 10:27:43;;;;;;;15.70;14.50;;;6.60;99.90;;;;;;6155070;23;20493;-74
2023/11/24 10:30:12;;;;;;;33.57;31.47;;;6.50;99.90;;;;;;6154585;23;20444;-74
2023/11/24 10:32:40;;;;;;;72.13;68.93;;;6.50;99.90;;;;;;6155085;23;20496;-74
2023/11/24 10:35:07;;;;;;;132.20;127.40;;;6.40;99.90;;;;;;6154891;23;20502;-73
2023/11/24 10:37:37;;;;;;;52.67;50.37;;;6.50;99.90;;;;;;6155104;23;20905;-74
2023/11/24 10:40:10;;;;;;;52.33;50.37;;;6.40;99.90;;;;;;6154899;23;20414;-74
2023/11/24 10:42:39;;;;;;;50.07;47.67;;;6.40;99.90;;;;;;6164584;23;20501;-73
2023/11/24 10:45:10;;;;;;;49.33;46.57;;;6.50;99.90;;;;;;6164346;23;20481;-73
2023/11/24 10:47:44;;;;;;;97.60;94.30;;;6.50;99.90;;;;;;6154541;23;20474;-74
2023/11/24 10:50:14;;;;;;;51.77;49.70;;;6.60;99.90;;;;;;6154893;23;20396;-74
2023/11/24 10:52:48;;;;;;;11.57;10.37;;;6.80;99.90;;;;;;6154685;23;20499;-73
2023/11/24 10:55:16;;;;;;;12.17;10.97;;;6.90;99.90;;;;;;6154413;23;20496;-73
2023/11/24 10:57:44;;;;;;;9.70;8.97;;;6.90;99.90;;;;;;6154540;23;20510;-74
2023/11/24 11:00:19;;;;;;;9.70;8.80;;;6.90;99.90;;;;;;6164120;23;20493;-73
2023/11/24 11:02:47;;;;;;;14.60;13.60;;;6.80;99.90;;;;;;6155018;23;20399;-73
2023/11/24 11:05:23;;;;;;;21.03;19.00;;;6.90;99.90;;;;;;6154953;23;20503;-74
2023/11/24 11:07:58;;;;;;;56.80;54.20;;;7.00;99.90;;;;;;6154497;23;20439;-73
2023/11/24 11:10:28;;;;;;;14.30;13.30;;;7.20;99.90;;;;;;6164121;23;20414;-73
2023/11/24 11:12:57;;;;;;;11.53;8.03;;;7.20;99.90;;;;;;6154937;23;20430;-73
2023/11/24 11:15:28;;;;;;;6.50;4.73;;;7.20;99.90;;;;;;6154720;23;20445;-73
2023/11/24 11:18:08;;;;;;;12.93;11.63;;;7.20;99.90;;;;;;6154186;23;20414;-73
2023/11/24 11:20:38;;;;;;;8.03;3.80;;;7.50;99.90;;;;;;6156350;23;20199;-73
2023/11/24 11:23:08;;;;;;;9.23;3.03;;;8.00;99.90;;;;;;6156898;23;20411;-73
2023/11/24 11:25:42;;;;;;;5.70;1.90;;;8.20;99.90;;;;;;6166227;23;20407;-73
2023/11/24 11:28:49;;;;;;;6.37;2.30;;;8.50;99.90;;;;;;6166226;23;20540;-73
2023/11/24 11:31:33;;;;;;;4.43;1.40;;;8.50;99.90;;;;;;6156476;23;20395;-73
2023/11/24 11:34:14;;;;;;;5.53;1.40;;;8.10;99.90;;;;;;6156420;23;20486;-73
2023/11/24 11:36:54;;;;;;;4.30;1.60;;;7.70;99.90;;;;;;6156715;23;20770;-73
2023/11/24 11:39:26;;;;;;;6.63;1.73;;;7.40;99.90;;;;;;6156515;23;20515;-73
2023/11/24 11:41:55;;;;;;;7.40;1.70;;;7.40;99.90;;;;;;6156625;23;20886;-72
2023/11/24 11:44:33;;;;;;;6.40;2.10;;;7.30;99.90;;;;;;6156565;23;20782;-72
2023/11/24 11:47:09;;;;;;;5.50;1.97;;;6.70;99.90;;;;;;6156542;23;20516;-74
2023/11/24 11:49:37;;;;;;;8.73;3.77;;;6.00;99.90;;;;;;6156354;23;20478;-76
2023/11/24 11:52:08;;;;;;;8.67;7.97;;;5.80;99.90;;;;;;6156448;23;20413;-78
2023/11/24 11:54:36;;;;;;;8.53;5.70;;;5.60;99.90;;;;;;6165703;23;20939;-77
2023/11/24 11:57:03;;;;;;;4.87;3.97;;;5.20;99.90;;;;;;6156492;23;20481;-76
2023/11/24 11:59:31;;;;;;;8.20;7.50;;;5.10;99.90;;;;;;6155797;23;20489;-77
2023/11/24 12:01:59;;;;;;;14.53;13.83;;;5.70;99.90;;;;;;6156427;23;20432;-77
2023/11/24 12:04:29;;;;;;;22.37;21.37;;;4.60;99.90;;;;;;6156429;23;20774;-78
2023/11/24 12:06:56;;;;;;;18.10;17.30;;;3.70;99.90;;;;;;6155856;23;20444;-78
2023/11/24 12:09:25;;;;;;;20.07;19.17;;;4.20;99.90;;;;;;6155653;23;20504;-77
2023/11/24 12:11:52;;;;;;;20.70;19.80;;;4.60;99.90;;;;;;6155951;23;20909;-76
2023/11/24 12:14:20;;;;;;;23.70;22.70;;;3.80;99.90;;;;;;6166352;23;20788;-77
2023/11/24 12:16:47;;;;;;;23.60;22.60;;;4.90;99.90;;;;;;6156264;23;20748;-76
2023/11/24 12:19:14;;;;;;;22.30;21.40;;;4.50;99.90;;;;;;6155543;23;20977;-76
2023/11/24 12:21:46;;;;;;;24.13;23.13;;;5.50;99.90;;;;;;6155816;23;20445;-77
2023/11/24 12:24:15;;;;;;;34.00;32.70;;;5.40;99.90;;;;;;6155946;23;20401;-76
2023/11/24 12:26:44;;;;;;;50.60;48.70;;;5.80;99.90;;;;;;6130451;23;20779;-76
2023/11/24 12:29:13;;;;;;;67.37;64.97;;;5.70;99.90;;;;;;6155515;23;20410;-76
2023/11/24 12:31:42;;;;;;;100.07;96.67;;;5.80;99.90;;;;;;6155730;23;20455;-76
2023/11/24 12:34:22;;;;;;;110.10;106.30;;;5.50;99.90;;;;;;6155748;23;21169;-76